sensor_id;sensor_type;location;lat;lon;timestamp;P1;durP1;ratioP1;P2;durP2;ratioP2
67512;SDS011;54356;49.812;24.060;2023-05-10T00:00:45;5.43;;;1.98;;
67512;SDS011;54356;49.812;24.060;2023-05-10T00:01:45;5.78;;;1.92;;
67512;SDS011;54356;49.812;24.060;2023-05-10T00:02:45;3.88;;;1.77;;
67512;SDS011;54356;49.812;24.060;2023-05-10T00:03:46;5.05;;;2.00;;
67512;SDS011;54356;49.812;24.060;2023-05-10T00:04:46;5.13;;;1.98;;
67512;SDS011;54356;49.812;24.060;2023-05-10T00:05:46;4.63;;;1.75;;
67512;SDS011;54356;49.812;24.060;2023-05-10T00:06:47;6.97;;;2.00;;
67512;SDS011;54356;49.812;24.060;2023-05-10T00:07:47;3.55;;;1.70;;
67512;SDS011;54356;49.812;24.060;2023-05-10T00:08:47;3.83;;;1.80;;
67512;SDS011;54356;49.812;24.060;2023-05-10T00:09:48;3.70;;;1.70;;
67512;SDS011;54356;49.812;24.060;2023-05-10T00:10:48;5.18;;;1.90;;
67512;SDS011;54356;49.812;24.060;2023-05-10T00:11:49;3.88;;;1.90;;
67512;SDS011;54356;49.812;24.060;2023-05-10T00:12:49;4.55;;;1.70;;
67512;SDS011;54356;49.812;24.060;2023-05-10T00:13:49;5.57;;;2.03;;
67512;SDS011;54356;49.812;24.060;2023-05-10T00:14:50;4.20;;;1.77;;
67512;SDS011;54356;49.812;24.060;2023-05-10T00:15:50;5.07;;;2.15;;
67512;SDS011;54356;49.812;24.060;2023-05-10T00:16:50;5.88;;;2.28;;
67512;SDS011;54356;49.812;24.060;2023-05-10T00:17:51;5.53;;;2.03;;
67512;SDS011;54356;49.812;24.060;2023-05-10T00:18:51;7.50;;;1.75;;
67512;SDS011;54356;49.812;24.060;2023-05-10T00:19:51;3.17;;;1.85;;
67512;SDS011;54356;49.812;24.060;2023-05-10T00:20:52;6.20;;;1.80;;
67512;SDS011;54356;49.812;24.060;2023-05-10T00:21:52;3.95;;;2.10;;
67512;SDS011;54356;49.812;24.060;2023-05-10T00:22:52;3.97;;;1.95;;
67512;SDS011;54356;49.812;24.060;2023-05-10T00:23:52;4.15;;;1.80;;
67512;SDS011;54356;49.812;24.060;2023-05-10T00:24:53;4.18;;;1.75;;
67512;SDS011;54356;49.812;24.060;2023-05-10T00:25:53;4.10;;;1.73;;
67512;SDS011;54356;49.812;24.060;2023-05-10T00:26:53;5.10;;;1.98;;
67512;SDS011;54356;49.812;24.060;2023-05-10T00:27:54;5.00;;;1.70;;
67512;SDS011;54356;49.812;24.060;2023-05-10T00:28:54;3.75;;;1.88;;
67512;SDS011;54356;49.812;24.060;2023-05-10T00:29:54;8.88;;;2.10;;
67512;SDS011;54356;49.812;24.060;2023-05-10T00:30:55;3.92;;;1.65;;
67512;SDS011;54356;49.812;24.060;2023-05-10T00:31:55;3.28;;;1.77;;
67512;SDS011;54356;49.812;24.060;2023-05-10T00:32:55;5.97;;;1.77;;
67512;SDS011;54356;49.812;24.060;2023-05-10T00:33:55;5.55;;;1.80;;
67512;SDS011;54356;49.812;24.060;2023-05-10T00:34:56;4.00;;;1.92;;
67512;SDS011;54356;49.812;24.060;2023-05-10T00:35:56;4.03;;;1.60;;
67512;SDS011;54356;49.812;24.060;2023-05-10T00:36:56;6.15;;;1.85;;
67512;SDS011;54356;49.812;24.060;2023-05-10T00:37:57;6.55;;;1.98;;
67512;SDS011;54356;49.812;24.060;2023-05-10T00:38:58;7.00;;;1.70;;
67512;SDS011;54356;49.812;24.060;2023-05-10T00:39:58;5.30;;;1.70;;
67512;SDS011;54356;49.812;24.060;2023-05-10T00:40:59;5.90;;;1.95;;
67512;SDS011;54356;49.812;24.060;2023-05-10T00:41:59;4.10;;;1.70;;
67512;SDS011;54356;49.812;24.060;2023-05-10T00:42:59;5.97;;;1.67;;
67512;SDS011;54356;49.812;24.060;2023-05-10T00:44:00;5.05;;;1.88;;
67512;SDS011;54356;49.812;24.060;2023-05-10T00:45:00;5.18;;;1.73;;
67512;SDS011;54356;49.812;24.060;2023-05-10T00:46:00;4.65;;;1.88;;
67512;SDS011;54356;49.812;24.060;2023-05-10T00:47:01;4.75;;;1.85;;
67512;SDS011;54356;49.812;24.060;2023-05-10T00:48:01;4.80;;;1.98;;
67512;SDS011;54356;49.812;24.060;2023-05-10T00:49:02;2.88;;;1.60;;
67512;SDS011;54356;49.812;24.060;2023-05-10T00:50:02;4.57;;;1.83;;
67512;SDS011;54356;49.812;24.060;2023-05-10T00:51:04;5.22;;;1.35;;
67512;SDS011;54356;49.812;24.060;2023-05-10T00:52:04;3.67;;;1.98;;
67512;SDS011;54356;49.812;24.060;2023-05-10T00:53:05;5.05;;;1.92;;
67512;SDS011;54356;49.812;24.060;2023-05-10T00:54:06;3.67;;;1.60;;
67512;SDS011;54356;49.812;24.060;2023-05-10T00:55:06;4.90;;;1.88;;
67512;SDS011;54356;49.812;24.060;2023-05-10T00:56:07;2.97;;;1.88;;
67512;SDS011;54356;49.812;24.060;2023-05-10T00:57:07;4.25;;;2.00;;
67512;SDS011;54356;49.812;24.060;2023-05-10T00:58:08;5.75;;;1.80;;
67512;SDS011;54356;49.812;24.060;2023-05-10T00:59:08;4.38;;;1.85;;
67512;SDS011;54356;49.812;24.060;2023-05-10T01:00:09;5.13;;;2.40;;
67512;SDS011;54356;49.812;24.060;2023-05-10T01:01:10;3.97;;;1.80;;
67512;SDS011;54356;49.812;24.060;2023-05-10T01:02:10;5.63;;;1.90;;
67512;SDS011;54356;49.812;24.060;2023-05-10T01:03:10;4.60;;;2.00;;
67512;SDS011;54356;49.812;24.060;2023-05-10T01:04:11;3.83;;;1.77;;
67512;SDS011;54356;49.812;24.060;2023-05-10T01:05:12;3.67;;;1.90;;
67512;SDS011;54356;49.812;24.060;2023-05-10T01:06:13;4.57;;;1.73;;
67512;SDS011;54356;49.812;24.060;2023-05-10T01:07:13;4.75;;;1.98;;
67512;SDS011;54356;49.812;24.060;2023-05-10T01:08:13;4.72;;;2.00;;
67512;SDS011;54356;49.812;24.060;2023-05-10T01:09:14;3.42;;;1.42;;
67512;SDS011;54356;49.812;24.060;2023-05-10T01:10:14;3.67;;;1.50;;
67512;SDS011;54356;49.812;24.060;2023-05-10T01:11:14;3.45;;;1.60;;
67512;SDS011;54356;49.812;24.060;2023-05-10T01:12:15;3.47;;;1.45;;
67512;SDS011;54356;49.812;24.060;2023-05-10T01:13:27;4.65;;;1.80;;
67512;SDS011;54356;49.812;24.060;2023-05-10T01:14:32;4.05;;;1.92;;
67512;SDS011;54356;49.812;24.060;2023-05-10T01:15:34;2.95;;;1.75;;
67512;SDS011;54356;49.812;24.060;2023-05-10T01:16:36;5.72;;;1.70;;
67512;SDS011;54356;49.812;24.060;2023-05-10T01:17:40;3.25;;;1.40;;
67512;SDS011;54356;49.812;24.060;2023-05-10T01:18:43;3.97;;;1.60;;
67512;SDS011;54356;49.812;24.060;2023-05-10T01:19:44;4.95;;;1.73;;
67512;SDS011;54356;49.812;24.060;2023-05-10T01:20:44;3.83;;;1.80;;
67512;SDS011;54356;49.812;24.060;2023-05-10T01:24:35;2.72;;;1.40;;
67512;SDS011;54356;49.812;24.060;2023-05-10T01:28:30;4.35;;;1.80;;
67512;SDS011;54356;49.812;24.060;2023-05-10T01:30:01;5.32;;;1.92;;
67512;SDS011;54356;49.812;24.060;2023-05-10T01:35:18;4.32;;;1.80;;
67512;SDS011;54356;49.812;24.060;2023-05-10T01:36:29;4.03;;;1.50;;
67512;SDS011;54356;49.812;24.060;2023-05-10T01:37:42;5.32;;;1.65;;
67512;SDS011;54356;49.812;24.060;2023-05-10T01:38:47;4.18;;;1.70;;
67512;SDS011;54356;49.812;24.060;2023-05-10T01:40:02;2.92;;;1.40;;
67512;SDS011;54356;49.812;24.060;2023-05-10T01:42:25;3.63;;;1.50;;
67512;SDS011;54356;49.812;24.060;2023-05-10T01:43:28;4.60;;;1.58;;
67512;SDS011;54356;49.812;24.060;2023-05-10T01:45:41;3.90;;;1.70;;
67512;SDS011;54356;49.812;24.060;2023-05-10T01:46:47;4.60;;;1.70;;
67512;SDS011;54356;49.812;24.060;2023-05-10T01:47:58;5.57;;;1.70;;
67512;SDS011;54356;49.812;24.060;2023-05-10T01:49:09;4.22;;;1.73;;
67512;SDS011;54356;49.812;24.060;2023-05-10T01:50:24;3.15;;;1.60;;
67512;SDS011;54356;49.812;24.060;2023-05-10T01:51:31;4.00;;;1.48;;
67512;SDS011;54356;49.812;24.060;2023-05-10T01:52:40;5.22;;;1.75;;
67512;SDS011;54356;49.812;24.060;2023-05-10T01:53:43;5.25;;;1.50;;
67512;SDS011;54356;49.812;24.060;2023-05-10T01:54:55;3.33;;;1.67;;
67512;SDS011;54356;49.812;24.060;2023-05-10T01:56:01;2.90;;;1.50;;
67512;SDS011;54356;49.812;24.060;2023-05-10T01:57:03;5.28;;;1.42;;
67512;SDS011;54356;49.812;24.060;2023-05-10T01:58:07;3.10;;;1.70;;
67512;SDS011;54356;49.812;24.060;2023-05-10T02:00:13;4.45;;;1.52;;
67512;SDS011;54356;49.812;24.060;2023-05-10T02:01:15;4.13;;;1.80;;
67512;SDS011;54356;49.812;24.060;2023-05-10T02:02:16;4.25;;;1.42;;
67512;SDS011;54356;49.812;24.060;2023-05-10T02:03:20;3.95;;;1.50;;
67512;SDS011;54356;49.812;24.060;2023-05-10T02:04:23;3.08;;;1.50;;
67512;SDS011;54356;49.812;24.060;2023-05-10T02:05:24;3.28;;;1.50;;
67512;SDS011;54356;49.812;24.060;2023-05-10T02:06:25;3.47;;;1.67;;
67512;SDS011;54356;49.812;24.060;2023-05-10T02:07:27;2.40;;;1.35;;
67512;SDS011;54356;49.812;24.060;2023-05-10T02:08:28;4.80;;;1.65;;
67512;SDS011;54356;49.812;24.060;2023-05-10T02:09:29;3.50;;;1.60;;
67512;SDS011;54356;49.812;24.060;2023-05-10T02:10:36;2.63;;;1.50;;
67512;SDS011;54356;49.812;24.060;2023-05-10T02:11:37;2.53;;;1.50;;
67512;SDS011;54356;49.812;24.060;2023-05-10T02:12:41;2.42;;;1.48;;
67512;SDS011;54356;49.812;24.060;2023-05-10T02:13:43;4.13;;;1.63;;
67512;SDS011;54356;49.812;24.060;2023-05-10T02:14:44;3.08;;;1.38;;
67512;SDS011;54356;49.812;24.060;2023-05-10T02:15:49;2.83;;;1.50;;
67512;SDS011;54356;49.812;24.060;2023-05-10T02:16:51;3.08;;;1.50;;
67512;SDS011;54356;49.812;24.060;2023-05-10T02:17:56;3.38;;;1.50;;
67512;SDS011;54356;49.812;24.060;2023-05-10T02:18:59;3.13;;;1.50;;
67512;SDS011;54356;49.812;24.060;2023-05-10T02:20:01;5.50;;;1.73;;
67512;SDS011;54356;49.812;24.060;2023-05-10T02:21:04;3.30;;;1.88;;
67512;SDS011;54356;49.812;24.060;2023-05-10T02:22:05;3.75;;;1.40;;
67512;SDS011;54356;49.812;24.060;2023-05-10T02:23:06;3.10;;;1.40;;
67512;SDS011;54356;49.812;24.060;2023-05-10T02:24:08;3.40;;;1.60;;
67512;SDS011;54356;49.812;24.060;2023-05-10T02:25:10;3.90;;;1.90;;
67512;SDS011;54356;49.812;24.060;2023-05-10T02:26:13;3.35;;;1.45;;
67512;SDS011;54356;49.812;24.060;2023-05-10T02:27:15;3.78;;;1.58;;
67512;SDS011;54356;49.812;24.060;2023-05-10T02:28:17;4.90;;;1.90;;
67512;SDS011;54356;49.812;24.060;2023-05-10T02:29:18;6.32;;;1.60;;
67512;SDS011;54356;49.812;24.060;2023-05-10T02:30:19;4.22;;;1.63;;
67512;SDS011;54356;49.812;24.060;2023-05-10T02:31:20;5.05;;;1.60;;
67512;SDS011;54356;49.812;24.060;2023-05-10T02:32:22;3.50;;;1.40;;
67512;SDS011;54356;49.812;24.060;2023-05-10T02:33:24;3.35;;;1.70;;
67512;SDS011;54356;49.812;24.060;2023-05-10T02:34:26;2.60;;;1.50;;
67512;SDS011;54356;49.812;24.060;2023-05-10T02:35:27;4.70;;;1.77;;
67512;SDS011;54356;49.812;24.060;2023-05-10T02:36:28;5.63;;;1.80;;
67512;SDS011;54356;49.812;24.060;2023-05-10T02:37:29;5.65;;;1.63;;
67512;SDS011;54356;49.812;24.060;2023-05-10T02:38:30;7.05;;;2.08;;
67512;SDS011;54356;49.812;24.060;2023-05-10T02:39:33;3.15;;;1.40;;
67512;SDS011;54356;49.812;24.060;2023-05-10T02:40:34;3.78;;;1.60;;
67512;SDS011;54356;49.812;24.060;2023-05-10T02:41:36;14.93;;;1.42;;
67512;SDS011;54356;49.812;24.060;2023-05-10T02:42:38;5.65;;;2.70;;
67512;SDS011;54356;49.812;24.060;2023-05-10T02:43:43;5.63;;;1.80;;
67512;SDS011;54356;49.812;24.060;2023-05-10T02:44:48;2.85;;;1.63;;
67512;SDS011;54356;49.812;24.060;2023-05-10T02:45:52;5.15;;;1.55;;
67512;SDS011;54356;49.812;24.060;2023-05-10T02:46:53;9.55;;;1.65;;
67512;SDS011;54356;49.812;24.060;2023-05-10T02:47:53;3.67;;;1.75;;
67512;SDS011;54356;49.812;24.060;2023-05-10T02:48:54;4.38;;;1.70;;
67512;SDS011;54356;49.812;24.060;2023-05-10T02:49:54;3.40;;;1.60;;
67512;SDS011;54356;49.812;24.060;2023-05-10T02:50:56;3.88;;;1.73;;
67512;SDS011;54356;49.812;24.060;2023-05-10T02:52:01;9.57;;;1.63;;
67512;SDS011;54356;49.812;24.060;2023-05-10T02:53:07;2.65;;;1.13;;
67512;SDS011;54356;49.812;24.060;2023-05-10T02:54:11;2.97;;;1.52;;
67512;SDS011;54356;49.812;24.060;2023-05-10T02:55:16;3.60;;;1.42;;
67512;SDS011;54356;49.812;24.060;2023-05-10T02:56:28;2.45;;;1.42;;
67512;SDS011;54356;49.812;24.060;2023-05-10T02:57:34;3.47;;;1.60;;
67512;SDS011;54356;49.812;24.060;2023-05-10T02:58:38;4.18;;;1.70;;
67512;SDS011;54356;49.812;24.060;2023-05-10T02:59:39;3.28;;;1.42;;
67512;SDS011;54356;49.812;24.060;2023-05-10T03:00:39;4.03;;;1.40;;
67512;SDS011;54356;49.812;24.060;2023-05-10T03:01:39;4.93;;;1.75;;
67512;SDS011;54356;49.812;24.060;2023-05-10T03:02:39;3.25;;;1.60;;
67512;SDS011;54356;49.812;24.060;2023-05-10T03:03:40;2.78;;;1.40;;
67512;SDS011;54356;49.812;24.060;2023-05-10T03:04:40;3.95;;;1.42;;
67512;SDS011;54356;49.812;24.060;2023-05-10T03:05:40;9.75;;;1.63;;
67512;SDS011;54356;49.812;24.060;2023-05-10T03:06:41;3.40;;;1.42;;
67512;SDS011;54356;49.812;24.060;2023-05-10T03:07:41;3.70;;;1.48;;
67512;SDS011;54356;49.812;24.060;2023-05-10T03:08:42;3.22;;;1.60;;
67512;SDS011;54356;49.812;24.060;2023-05-10T03:09:44;3.25;;;1.83;;
67512;SDS011;54356;49.812;24.060;2023-05-10T03:10:47;4.30;;;1.48;;
67512;SDS011;54356;49.812;24.060;2023-05-10T03:13:31;4.47;;;1.58;;
67512;SDS011;54356;49.812;24.060;2023-05-10T03:15:58;3.25;;;1.50;;
67512;SDS011;54356;49.812;24.060;2023-05-10T03:17:06;2.70;;;1.50;;
67512;SDS011;54356;49.812;24.060;2023-05-10T03:18:33;3.85;;;1.80;;
67512;SDS011;54356;49.812;24.060;2023-05-10T03:19:53;3.60;;;1.33;;
67512;SDS011;54356;49.812;24.060;2023-05-10T03:20:57;3.95;;;1.67;;
67512;SDS011;54356;49.812;24.060;2023-05-10T03:22:03;3.95;;;1.50;;
67512;SDS011;54356;49.812;24.060;2023-05-10T03:23:11;7.40;;;1.70;;
67512;SDS011;54356;49.812;24.060;2023-05-10T03:24:20;6.88;;;1.50;;
67512;SDS011;54356;49.812;24.060;2023-05-10T03:26:26;3.40;;;1.77;;
67512;SDS011;54356;49.812;24.060;2023-05-10T03:27:28;3.10;;;2.00;;
67512;SDS011;54356;49.812;24.060;2023-05-10T03:28:29;4.38;;;1.40;;
67512;SDS011;54356;49.812;24.060;2023-05-10T03:29:32;8.15;;;1.90;;
67512;SDS011;54356;49.812;24.060;2023-05-10T03:30:33;4.60;;;1.45;;
67512;SDS011;54356;49.812;24.060;2023-05-10T03:31:35;3.63;;;1.60;;
67512;SDS011;54356;49.812;24.060;2023-05-10T03:32:35;4.22;;;1.50;;
67512;SDS011;54356;49.812;24.060;2023-05-10T03:33:35;6.70;;;1.40;;
67512;SDS011;54356;49.812;24.060;2023-05-10T03:34:45;4.05;;;1.50;;
67512;SDS011;54356;49.812;24.060;2023-05-10T03:35:45;4.47;;;1.40;;
67512;SDS011;54356;49.812;24.060;2023-05-10T03:36:46;2.63;;;1.42;;
67512;SDS011;54356;49.812;24.060;2023-05-10T03:37:46;4.55;;;1.70;;
67512;SDS011;54356;49.812;24.060;2023-05-10T03:38:46;2.70;;;1.35;;
67512;SDS011;54356;49.812;24.060;2023-05-10T03:39:47;4.70;;;1.50;;
67512;SDS011;54356;49.812;24.060;2023-05-10T03:40:47;3.50;;;1.80;;
67512;SDS011;54356;49.812;24.060;2023-05-10T03:41:47;2.45;;;1.42;;
67512;SDS011;54356;49.812;24.060;2023-05-10T03:42:48;4.38;;;1.80;;
67512;SDS011;54356;49.812;24.060;2023-05-10T03:43:48;2.90;;;1.52;;
67512;SDS011;54356;49.812;24.060;2023-05-10T03:44:48;3.53;;;1.60;;
67512;SDS011;54356;49.812;24.060;2023-05-10T03:45:49;2.92;;;1.58;;
67512;SDS011;54356;49.812;24.060;2023-05-10T03:46:49;4.78;;;1.63;;
67512;SDS011;54356;49.812;24.060;2023-05-10T03:47:49;2.95;;;1.20;;
67512;SDS011;54356;49.812;24.060;2023-05-10T03:48:50;2.65;;;1.50;;
67512;SDS011;54356;49.812;24.060;2023-05-10T03:49:50;5.57;;;1.67;;
67512;SDS011;54356;49.812;24.060;2023-05-10T03:50:50;2.50;;;1.30;;
67512;SDS011;54356;49.812;24.060;2023-05-10T03:51:50;3.90;;;1.52;;
67512;SDS011;54356;49.812;24.060;2023-05-10T03:52:51;3.28;;;1.65;;
67512;SDS011;54356;49.812;24.060;2023-05-10T03:53:51;4.35;;;1.70;;
67512;SDS011;54356;49.812;24.060;2023-05-10T03:54:52;4.40;;;1.48;;
67512;SDS011;54356;49.812;24.060;2023-05-10T03:55:52;2.88;;;1.50;;
67512;SDS011;54356;49.812;24.060;2023-05-10T03:56:52;4.72;;;1.65;;
67512;SDS011;54356;49.812;24.060;2023-05-10T03:57:53;3.47;;;1.70;;
67512;SDS011;54356;49.812;24.060;2023-05-10T03:58:53;5.07;;;1.73;;
67512;SDS011;54356;49.812;24.060;2023-05-10T03:59:53;2.85;;;1.60;;
67512;SDS011;54356;49.812;24.060;2023-05-10T04:00:54;2.70;;;1.40;;
67512;SDS011;54356;49.812;24.060;2023-05-10T04:01:54;6.72;;;1.80;;
67512;SDS011;54356;49.812;24.060;2023-05-10T04:02:54;4.88;;;1.70;;
67512;SDS011;54356;49.812;24.060;2023-05-10T04:03:54;2.53;;;1.50;;
67512;SDS011;54356;49.812;24.060;2023-05-10T04:04:55;3.42;;;1.48;;
67512;SDS011;54356;49.812;24.060;2023-05-10T04:05:59;3.22;;;1.60;;
67512;SDS011;54356;49.812;24.060;2023-05-10T04:07:00;3.10;;;1.73;;
67512;SDS011;54356;49.812;24.060;2023-05-10T04:08:01;3.70;;;1.40;;
67512;SDS011;54356;49.812;24.060;2023-05-10T04:09:01;3.00;;;1.58;;
67512;SDS011;54356;49.812;24.060;2023-05-10T04:10:01;2.78;;;1.35;;
67512;SDS011;54356;49.812;24.060;2023-05-10T04:11:09;2.30;;;1.48;;
67512;SDS011;54356;49.812;24.060;2023-05-10T04:12:10;3.13;;;1.60;;
67512;SDS011;54356;49.812;24.060;2023-05-10T04:13:10;4.15;;;1.70;;
67512;SDS011;54356;49.812;24.060;2023-05-10T04:14:11;3.60;;;1.40;;
67512;SDS011;54356;49.812;24.060;2023-05-10T04:15:11;3.70;;;1.50;;
67512;SDS011;54356;49.812;24.060;2023-05-10T04:16:11;3.35;;;1.58;;
67512;SDS011;54356;49.812;24.060;2023-05-10T04:17:12;3.25;;;1.50;;
67512;SDS011;54356;49.812;24.060;2023-05-10T04:18:12;3.10;;;1.40;;
67512;SDS011;54356;49.812;24.060;2023-05-10T04:19:12;3.22;;;1.67;;
67512;SDS011;54356;49.812;24.060;2023-05-10T04:20:13;4.63;;;1.55;;
67512;SDS011;54356;49.812;24.060;2023-05-10T04:21:13;5.45;;;1.83;;
67512;SDS011;54356;49.812;24.060;2023-05-10T04:22:14;2.55;;;1.23;;
67512;SDS011;54356;49.812;24.060;2023-05-10T04:23:14;2.65;;;1.52;;
67512;SDS011;54356;49.812;24.060;2023-05-10T04:24:15;5.28;;;1.52;;
67512;SDS011;54356;49.812;24.060;2023-05-10T04:25:15;4.10;;;1.33;;
67512;SDS011;54356;49.812;24.060;2023-05-10T04:26:15;5.05;;;1.50;;
67512;SDS011;54356;49.812;24.060;2023-05-10T04:27:16;4.47;;;1.80;;
67512;SDS011;54356;49.812;24.060;2023-05-10T04:28:16;3.97;;;1.67;;
67512;SDS011;54356;49.812;24.060;2023-05-10T04:29:16;12.05;;;1.92;;
67512;SDS011;54356;49.812;24.060;2023-05-10T04:30:17;4.43;;;1.70;;
67512;SDS011;54356;49.812;24.060;2023-05-10T04:31:17;15.00;;;2.10;;
67512;SDS011;54356;49.812;24.060;2023-05-10T04:32:17;3.30;;;1.90;;
67512;SDS011;54356;49.812;24.060;2023-05-10T04:33:18;3.58;;;2.00;;
67512;SDS011;54356;49.812;24.060;2023-05-10T04:34:18;6.07;;;2.22;;
67512;SDS011;54356;49.812;24.060;2023-05-10T04:35:20;5.25;;;2.20;;
67512;SDS011;54356;49.812;24.060;2023-05-10T04:36:20;5.75;;;2.42;;
67512;SDS011;54356;49.812;24.060;2023-05-10T04:37:21;4.03;;;2.40;;
67512;SDS011;54356;49.812;24.060;2023-05-10T04:38:21;9.32;;;2.58;;
67512;SDS011;54356;49.812;24.060;2023-05-10T04:39:21;4.03;;;2.30;;
67512;SDS011;54356;49.812;24.060;2023-05-10T04:40:22;7.53;;;2.15;;
67512;SDS011;54356;49.812;24.060;2023-05-10T04:41:22;4.60;;;2.15;;
67512;SDS011;54356;49.812;24.060;2023-05-10T04:42:22;8.10;;;2.63;;
67512;SDS011;54356;49.812;24.060;2023-05-10T04:43:23;6.93;;;2.67;;
67512;SDS011;54356;49.812;24.060;2023-05-10T04:44:23;5.55;;;2.50;;
67512;SDS011;54356;49.812;24.060;2023-05-10T04:45:23;8.10;;;2.78;;
67512;SDS011;54356;49.812;24.060;2023-05-10T04:46:24;13.70;;;3.10;;
67512;SDS011;54356;49.812;24.060;2023-05-10T04:47:24;4.45;;;2.58;;
67512;SDS011;54356;49.812;24.060;2023-05-10T04:48:24;8.30;;;2.58;;
67512;SDS011;54356;49.812;24.060;2023-05-10T04:49:25;10.65;;;3.35;;
67512;SDS011;54356;49.812;24.060;2023-05-10T04:50:25;7.00;;;2.95;;
67512;SDS011;54356;49.812;24.060;2023-05-10T04:51:25;7.28;;;3.22;;
67512;SDS011;54356;49.812;24.060;2023-05-10T04:52:25;8.43;;;3.40;;
67512;SDS011;54356;49.812;24.060;2023-05-10T04:53:26;6.20;;;3.30;;
67512;SDS011;54356;49.812;24.060;2023-05-10T04:54:26;10.00;;;3.63;;
67512;SDS011;54356;49.812;24.060;2023-05-10T04:55:27;10.57;;;3.63;;
67512;SDS011;54356;49.812;24.060;2023-05-10T04:56:27;6.25;;;3.70;;
67512;SDS011;54356;49.812;24.060;2023-05-10T04:57:27;5.90;;;3.38;;
67512;SDS011;54356;49.812;24.060;2023-05-10T04:58:27;9.50;;;3.40;;
67512;SDS011;54356;49.812;24.060;2023-05-10T04:59:28;7.57;;;4.07;;
67512;SDS011;54356;49.812;24.060;2023-05-10T05:00:28;6.72;;;3.80;;
67512;SDS011;54356;49.812;24.060;2023-05-10T05:01:28;14.18;;;4.25;;
67512;SDS011;54356;49.812;24.060;2023-05-10T05:02:29;9.00;;;3.75;;
67512;SDS011;54356;49.812;24.060;2023-05-10T05:03:29;8.05;;;3.60;;
67512;SDS011;54356;49.812;24.060;2023-05-10T05:04:29;8.52;;;3.60;;
67512;SDS011;54356;49.812;24.060;2023-05-10T05:05:30;7.80;;;3.33;;
67512;SDS011;54356;49.812;24.060;2023-05-10T05:06:30;6.10;;;3.22;;
67512;SDS011;54356;49.812;24.060;2023-05-10T05:07:31;8.77;;;3.40;;
67512;SDS011;54356;49.812;24.060;2023-05-10T05:08:31;9.95;;;3.30;;
67512;SDS011;54356;49.812;24.060;2023-05-10T05:09:31;14.73;;;3.33;;
67512;SDS011;54356;49.812;24.060;2023-05-10T05:10:31;8.55;;;3.25;;
67512;SDS011;54356;49.812;24.060;2023-05-10T05:11:32;5.85;;;2.97;;
67512;SDS011;54356;49.812;24.060;2023-05-10T05:12:32;6.00;;;3.03;;
67512;SDS011;54356;49.812;24.060;2023-05-10T05:13:33;7.00;;;3.33;;
67512;SDS011;54356;49.812;24.060;2023-05-10T05:14:33;8.88;;;2.75;;
67512;SDS011;54356;49.812;24.060;2023-05-10T05:15:33;5.47;;;3.08;;
67512;SDS011;54356;49.812;24.060;2023-05-10T05:16:33;6.00;;;2.80;;
67512;SDS011;54356;49.812;24.060;2023-05-10T05:17:34;5.88;;;3.25;;
67512;SDS011;54356;49.812;24.060;2023-05-10T05:18:34;5.47;;;2.92;;
67512;SDS011;54356;49.812;24.060;2023-05-10T05:19:34;6.88;;;3.03;;
67512;SDS011;54356;49.812;24.060;2023-05-10T05:20:35;7.18;;;2.85;;
67512;SDS011;54356;49.812;24.060;2023-05-10T05:21:35;7.25;;;2.85;;
67512;SDS011;54356;49.812;24.060;2023-05-10T05:22:36;6.15;;;2.67;;
67512;SDS011;54356;49.812;24.060;2023-05-10T05:23:36;7.70;;;3.13;;
67512;SDS011;54356;49.812;24.060;2023-05-10T05:24:37;7.57;;;3.00;;
67512;SDS011;54356;49.812;24.060;2023-05-10T05:25:37;6.30;;;2.83;;
67512;SDS011;54356;49.812;24.060;2023-05-10T05:26:37;6.55;;;2.53;;
67512;SDS011;54356;49.812;24.060;2023-05-10T05:27:38;10.18;;;3.40;;
67512;SDS011;54356;49.812;24.060;2023-05-10T05:28:38;7.32;;;2.88;;
67512;SDS011;54356;49.812;24.060;2023-05-10T05:29:38;7.25;;;2.95;;
67512;SDS011;54356;49.812;24.060;2023-05-10T05:30:39;10.35;;;3.42;;
67512;SDS011;54356;49.812;24.060;2023-05-10T05:31:39;13.00;;;3.40;;
67512;SDS011;54356;49.812;24.060;2023-05-10T05:32:39;11.25;;;2.92;;
67512;SDS011;54356;49.812;24.060;2023-05-10T05:33:40;14.95;;;3.38;;
67512;SDS011;54356;49.812;24.060;2023-05-10T05:34:40;25.10;;;9.65;;
67512;SDS011;54356;49.812;24.060;2023-05-10T05:35:41;16.88;;;10.45;;
67512;SDS011;54356;49.812;24.060;2023-05-10T05:36:41;21.33;;;10.35;;
67512;SDS011;54356;49.812;24.060;2023-05-10T05:37:41;23.20;;;10.80;;
67512;SDS011;54356;49.812;24.060;2023-05-10T05:38:42;24.02;;;11.63;;
67512;SDS011;54356;49.812;24.060;2023-05-10T05:39:42;19.08;;;9.55;;
67512;SDS011;54356;49.812;24.060;2023-05-10T05:40:43;18.17;;;9.48;;
67512;SDS011;54356;49.812;24.060;2023-05-10T05:41:43;17.77;;;7.85;;
67512;SDS011;54356;49.812;24.060;2023-05-10T05:42:43;16.63;;;6.72;;
67512;SDS011;54356;49.812;24.060;2023-05-10T05:43:44;14.68;;;5.25;;
67512;SDS011;54356;49.812;24.060;2023-05-10T05:44:44;15.02;;;5.50;;
67512;SDS011;54356;49.812;24.060;2023-05-10T05:45:44;17.02;;;5.28;;
67512;SDS011;54356;49.812;24.060;2023-05-10T05:46:45;11.70;;;4.82;;
67512;SDS011;54356;49.812;24.060;2023-05-10T05:47:45;12.48;;;5.10;;
67512;SDS011;54356;49.812;24.060;2023-05-10T05:48:45;12.07;;;4.88;;
67512;SDS011;54356;49.812;24.060;2023-05-10T05:49:46;12.45;;;4.40;;
67512;SDS011;54356;49.812;24.060;2023-05-10T05:50:46;8.40;;;3.88;;
67512;SDS011;54356;49.812;24.060;2023-05-10T05:51:46;10.68;;;4.05;;
67512;SDS011;54356;49.812;24.060;2023-05-10T05:52:46;9.18;;;4.00;;
67512;SDS011;54356;49.812;24.060;2023-05-10T05:53:47;8.85;;;3.97;;
67512;SDS011;54356;49.812;24.060;2023-05-10T05:54:47;10.82;;;3.95;;
67512;SDS011;54356;49.812;24.060;2023-05-10T05:55:54;13.43;;;4.00;;
67512;SDS011;54356;49.812;24.060;2023-05-10T05:56:55;10.75;;;3.60;;
67512;SDS011;54356;49.812;24.060;2023-05-10T05:57:59;11.23;;;3.67;;
67512;SDS011;54356;49.812;24.060;2023-05-10T05:58:59;10.93;;;3.83;;
67512;SDS011;54356;49.812;24.060;2023-05-10T05:59:59;8.52;;;3.63;;
67512;SDS011;54356;49.812;24.060;2023-05-10T06:01:00;8.65;;;3.90;;
67512;SDS011;54356;49.812;24.060;2023-05-10T06:02:00;10.57;;;3.22;;
67512;SDS011;54356;49.812;24.060;2023-05-10T06:03:00;10.73;;;3.95;;
67512;SDS011;54356;49.812;24.060;2023-05-10T06:04:00;7.75;;;3.15;;
67512;SDS011;54356;49.812;24.060;2023-05-10T06:05:01;7.70;;;3.35;;
67512;SDS011;54356;49.812;24.060;2023-05-10T06:06:01;7.70;;;2.95;;
67512;SDS011;54356;49.812;24.060;2023-05-10T06:07:01;5.43;;;2.85;;
67512;SDS011;54356;49.812;24.060;2023-05-10T06:08:02;8.15;;;3.35;;
67512;SDS011;54356;49.812;24.060;2023-05-10T06:09:02;11.27;;;2.88;;
67512;SDS011;54356;49.812;24.060;2023-05-10T06:10:03;7.55;;;3.10;;
67512;SDS011;54356;49.812;24.060;2023-05-10T06:11:03;11.55;;;3.05;;
67512;SDS011;54356;49.812;24.060;2023-05-10T06:12:03;7.30;;;3.03;;
67512;SDS011;54356;49.812;24.060;2023-05-10T06:13:04;7.65;;;2.97;;
67512;SDS011;54356;49.812;24.060;2023-05-10T06:14:04;9.50;;;3.00;;
67512;SDS011;54356;49.812;24.060;2023-05-10T06:15:05;8.50;;;3.08;;
67512;SDS011;54356;49.812;24.060;2023-05-10T06:16:05;6.43;;;2.90;;
67512;SDS011;54356;49.812;24.060;2023-05-10T06:17:06;9.20;;;2.88;;
67512;SDS011;54356;49.812;24.060;2023-05-10T06:18:06;6.45;;;3.13;;
67512;SDS011;54356;49.812;24.060;2023-05-10T06:19:06;6.70;;;3.00;;
67512;SDS011;54356;49.812;24.060;2023-05-10T06:20:07;6.78;;;2.90;;
67512;SDS011;54356;49.812;24.060;2023-05-10T06:21:08;6.72;;;2.95;;
67512;SDS011;54356;49.812;24.060;2023-05-10T06:22:08;8.38;;;2.92;;
67512;SDS011;54356;49.812;24.060;2023-05-10T06:23:08;6.18;;;2.83;;